Time;durP1;ratioP1;P1;durP2;ratioP2;P2;SDS_P1;SDS_P2;PMS_P1;PMS_P2;Temp;Humidity;BMP_temperature;BMP_pressure;BME280_temperature;BME280_humidity;BME280_pressure;Samples;Min_cycle;Max_cycle;Signal;HPM_P1;HPM_P2
2023/08/26 00:00:33;;;;;;;7.97;2.07;;;16.30;99.90;;;;;;7287643;19;20280;-78
2023/08/26 00:02:59;;;;;;;5.43;2.10;;;16.30;99.90;;;;;;7285481;19;20197;-77
2023/08/26 00:05:25;;;;;;;7.07;2.03;;;16.30;99.90;;;;;;7286565;19;20590;-78
2023/08/26 00:07:50;;;;;;;8.67;1.93;;;16.20;99.90;;;;;;7287520;19;20190;-77
2023/08/26 00:10:16;;;;;;;8.73;2.00;;;16.10;99.90;;;;;;7285808;19;20187;-77
2023/08/26 00:12:43;;;;;;;8.90;2.10;;;16.10;99.90;;;;;;7308472;19;20199;-78
2023/08/26 00:15:09;;;;;;;7.47;2.10;;;16.20;99.90;;;;;;7287011;19;20195;-78
2023/08/26 00:17:35;;;;;;;5.30;1.90;;;16.10;99.90;;;;;;7287575;19;20199;-78
2023/08/26 00:20:00;;;;;;;8.50;2.00;;;16.10;99.90;;;;;;7286600;19;20195;-78
2023/08/26 00:22:26;;;;;;;9.37;2.20;;;16.20;99.90;;;;;;7287062;19;20199;-79
2023/08/26 00:24:52;;;;;;;5.97;1.87;;;16.10;99.90;;;;;;7285710;19;20198;-78
2023/08/26 00:27:17;;;;;;;10.83;2.00;;;16.10;99.90;;;;;;7285224;19;20185;-78
2023/08/26 00:29:44;;;;;;;5.93;1.77;;;16.20;99.90;;;;;;7294075;19;20195;-77
2023/08/26 00:32:10;;;;;;;8.33;1.70;;;16.20;99.90;;;;;;7308113;19;20209;-78
2023/08/26 00:34:36;;;;;;;5.90;1.70;;;16.20;99.90;;;;;;7284895;19;20191;-78
2023/08/26 00:37:02;;;;;;;5.80;1.90;;;16.30;99.90;;;;;;7286768;19;20187;-78
2023/08/26 00:39:27;;;;;;;8.07;1.90;;;16.30;99.90;;;;;;7284365;19;20198;-80
2023/08/26 00:41:53;;;;;;;8.03;1.87;;;16.30;99.90;;;;;;7285552;19;20207;-78
2023/08/26 00:44:22;;;;;;;8.20;1.90;;;16.30;99.90;;;;;;7285909;19;20191;-78
2023/08/26 00:46:48;;;;;;;9.23;1.70;;;16.30;99.90;;;;;;7286047;19;20188;-78
2023/08/26 00:49:14;;;;;;;8.67;1.50;;;16.30;99.90;;;;;;7295887;19;20194;-78
2023/08/26 00:51:40;;;;;;;9.17;1.40;;;16.40;99.90;;;;;;7308887;19;20214;-79
2023/08/26 00:54:09;;;;;;;8.80;1.83;;;16.50;99.90;;;;;;7286053;19;20660;-79
2023/08/26 00:56:35;;;;;;;8.13;2.00;;;16.50;99.90;;;;;;7286895;19;20736;-79
2023/08/26 00:59:01;;;;;;;9.17;1.70;;;16.50;99.90;;;;;;7286036;19;20220;-80
2023/08/26 01:01:31;;;;;;;6.27;1.53;;;16.50;99.90;;;;;;7286097;19;20193;-80
2023/08/26 01:03:57;;;;;;;6.73;2.00;;;16.50;99.90;;;;;;7287054;19;20195;-79
2023/08/26 01:06:25;;;;;;;8.33;1.70;;;16.50;99.90;;;;;;7285373;19;20679;-79
2023/08/26 01:08:52;;;;;;;6.00;2.10;;;16.50;99.90;;;;;;7284686;19;20210;-79
2023/08/26 01:11:53;;;;;;;8.73;2.07;;;16.40;99.90;;;;;;7284830;19;20191;-78
2023/08/26 01:14:44;;;;;;;5.47;2.00;;;16.40;99.90;;;;;;7181867;19;2006239;-78
2023/08/26 01:17:12;;;;;;;8.70;2.00;;;16.50;99.90;;;;;;7284134;19;20537;-79
2023/08/26 01:19:42;;;;;;;6.63;1.60;;;16.50;99.90;;;;;;7285099;19;20192;-78
2023/08/26 01:22:09;;;;;;;7.07;1.70;;;16.40;99.90;;;;;;7282733;19;20196;-78
2023/08/26 01:24:37;;;;;;;5.50;1.47;;;16.40;99.90;;;;;;7284459;19;21080;-79
2023/08/26 01:27:03;;;;;;;12.17;2.40;;;16.40;99.90;;;;;;7285597;19;21238;-78
2023/08/26 01:29:29;;;;;;;6.00;1.90;;;16.30;99.90;;;;;;7283854;19;20197;-78
2023/08/26 01:32:00;;;;;;;10.17;2.30;;;16.20;99.90;;;;;;7284050;19;20202;-78
2023/08/26 01:34:29;;;;;;;9.70;1.60;;;16.20;99.90;;;;;;7283596;19;20192;-78
2023/08/26 01:36:58;;;;;;;10.63;2.20;;;16.20;99.90;;;;;;7284604;19;20281;-78
2023/08/26 01:39:25;;;;;;;7.50;1.97;;;16.10;99.90;;;;;;7282593;19;20195;-78
2023/08/26 01:41:51;;;;;;;8.03;1.83;;;16.20;99.90;;;;;;7283923;19;20515;-78
2023/08/26 01:44:18;;;;;;;6.93;1.90;;;16.10;99.90;;;;;;7285527;19;20196;-79
2023/08/26 01:46:46;;;;;;;6.87;1.90;;;16.10;99.90;;;;;;7286650;19;20210;-78
2023/08/26 01:49:14;;;;;;;7.73;1.97;;;16.00;99.90;;;;;;7307918;19;20367;-77
2023/08/26 01:51:40;;;;;;;6.33;2.00;;;16.00;99.90;;;;;;7284880;19;20194;-78
2023/08/26 01:54:06;;;;;;;9.23;2.20;;;16.10;99.90;;;;;;7283903;19;20254;-78
2023/08/26 01:56:33;;;;;;;7.90;2.10;;;16.10;99.90;;;;;;7284961;19;20207;-78
2023/08/26 01:58:59;;;;;;;6.37;2.00;;;16.10;99.90;;;;;;7283904;19;20211;-78
2023/08/26 02:01:25;;;;;;;8.10;2.00;;;16.20;99.90;;;;;;7284437;19;20194;-78
2023/08/26 02:03:51;;;;;;;10.67;1.70;;;16.20;99.90;;;;;;7282793;19;20280;-78
2023/08/26 02:06:17;;;;;;;6.47;1.70;;;16.20;99.90;;;;;;7282886;19;20195;-78
2023/08/26 02:08:45;;;;;;;8.33;1.77;;;16.20;99.90;;;;;;7295801;19;20187;-77
2023/08/26 02:11:11;;;;;;;7.00;1.63;;;16.20;99.90;;;;;;7306136;19;20202;-78
2023/08/26 02:13:37;;;;;;;6.93;1.60;;;16.20;99.90;;;;;;7283220;19;20191;-78
2023/08/26 02:16:03;;;;;;;7.30;1.40;;;16.10;99.90;;;;;;7283984;19;25669;-78
2023/08/26 02:18:28;;;;;;;4.53;1.50;;;16.10;99.90;;;;;;7282841;19;20652;-79
2023/08/26 02:20:55;;;;;;;4.77;1.40;;;16.10;99.90;;;;;;7282155;19;20224;-78
2023/08/26 02:23:21;;;;;;;7.33;1.47;;;16.00;99.90;;;;;;7282303;19;20219;-78
2023/08/26 02:25:47;;;;;;;7.30;1.73;;;16.00;99.90;;;;;;7281287;19;20202;-78
2023/08/26 02:28:13;;;;;;;4.93;1.40;;;15.90;99.90;;;;;;7305616;19;20204;-78
2023/08/26 02:30:39;;;;;;;8.73;1.97;;;15.90;99.90;;;;;;7283434;19;20202;-78
2023/08/26 02:33:06;;;;;;;10.67;1.90;;;15.90;99.90;;;;;;7283131;19;20204;-78
2023/08/26 02:35:33;;;;;;;4.63;1.37;;;15.90;99.90;;;;;;7289301;19;20673;-78
2023/08/26 02:37:59;;;;;;;8.67;1.40;;;15.80;99.90;;;;;;7290169;19;20211;-78
2023/08/26 02:40:25;;;;;;;5.77;1.40;;;15.80;99.90;;;;;;7288954;19;21113;-78
2023/08/26 02:42:51;;;;;;;3.67;1.47;;;15.90;99.90;;;;;;7290440;19;20189;-78
2023/08/26 02:45:17;;;;;;;7.33;1.60;;;15.90;99.90;;;;;;7288838;19;20195;-78
2023/08/26 02:47:44;;;;;;;9.80;1.70;;;15.80;99.90;;;;;;7308421;19;20191;-76
2023/08/26 02:50:12;;;;;;;7.13;1.60;;;15.80;99.90;;;;;;7312459;19;20226;-78
2023/08/26 02:52:38;;;;;;;7.00;1.40;;;15.80;99.90;;;;;;7289954;19;20650;-79
2023/08/26 02:55:06;;;;;;;5.60;1.67;;;15.70;99.90;;;;;;7288965;19;20189;-79
2023/08/26 02:57:33;;;;;;;6.80;1.30;;;15.70;99.90;;;;;;7289801;19;20666;-78
2023/08/26 02:59:58;;;;;;;6.87;1.60;;;15.70;99.90;;;;;;7288520;19;20209;-79
2023/08/26 03:02:24;;;;;;;5.90;1.23;;;15.70;99.90;;;;;;7291117;19;20198;-79
2023/08/26 03:04:51;;;;;;;4.00;1.60;;;15.60;99.90;;;;;;7287449;19;20292;-78
2023/08/26 03:07:16;;;;;;;7.43;1.57;;;15.60;99.90;;;;;;7288715;19;20191;-78
2023/08/26 03:09:42;;;;;;;4.97;1.33;;;15.50;99.90;;;;;;7310797;19;20193;-78
2023/08/26 03:12:08;;;;;;;4.73;1.47;;;15.60;99.90;;;;;;7288311;19;20187;-78
2023/08/26 03:14:37;;;;;;;8.47;1.90;;;15.60;99.90;;;;;;7288430;19;20552;-78
2023/08/26 03:17:03;;;;;;;4.23;1.10;;;15.50;99.90;;;;;;7289820;19;20220;-78
2023/08/26 03:19:29;;;;;;;7.93;1.70;;;15.50;99.90;;;;;;7288292;19;20194;-78
2023/08/26 03:21:55;;;;;;;5.47;1.47;;;15.60;99.90;;;;;;7290289;19;20256;-78
2023/08/26 03:24:21;;;;;;;8.07;1.90;;;15.50;99.90;;;;;;7287482;19;20655;-77
2023/08/26 03:26:48;;;;;;;7.67;1.80;;;15.50;99.90;;;;;;7288127;19;20286;-78
2023/08/26 03:29:14;;;;;;;5.57;1.83;;;15.50;99.90;;;;;;7307844;19;20615;-77
2023/08/26 03:31:43;;;;;;;8.80;1.70;;;15.50;99.90;;;;;;7310164;19;20182;-78
2023/08/26 03:34:10;;;;;;;8.50;1.70;;;15.50;99.90;;;;;;7288750;19;20210;-78
2023/08/26 03:36:35;;;;;;;7.50;1.90;;;15.50;99.90;;;;;;7286159;19;20951;-78
2023/08/26 03:39:03;;;;;;;7.60;1.90;;;15.60;99.90;;;;;;7287549;19;20188;-78
2023/08/26 03:41:30;;;;;;;6.43;2.00;;;15.50;99.90;;;;;;7288970;19;20727;-78
2023/08/26 03:43:56;;;;;;;10.13;2.00;;;15.60;99.90;;;;;;7287290;19;20197;-79
2023/08/26 03:46:26;;;;;;;4.80;1.77;;;15.50;99.90;;;;;;7286265;19;20179;-78
2023/08/26 03:48:52;;;;;;;6.40;2.00;;;15.50;99.90;;;;;;7288246;19;20226;-78
2023/08/26 03:51:20;;;;;;;10.67;2.43;;;15.50;99.90;;;;;;7288792;19;20188;-78
2023/08/26 03:53:46;;;;;;;9.00;2.30;;;15.50;99.90;;;;;;7287023;19;20182;-78
2023/08/26 03:56:13;;;;;;;6.83;1.97;;;15.40;99.90;;;;;;7310088;19;20191;-78
2023/08/26 03:58:40;;;;;;;10.17;2.43;;;15.40;99.90;;;;;;7287602;19;20191;-78
2023/08/26 04:01:06;;;;;;;10.50;2.77;;;15.50;99.90;;;;;;7287959;19;20185;-78
2023/08/26 04:03:33;;;;;;;14.70;3.50;;;15.50;99.90;;;;;;7287913;19;20206;-78
2023/08/26 04:06:03;;;;;;;13.07;3.70;;;15.50;99.90;;;;;;7285934;19;20198;-78
2023/08/26 04:08:30;;;;;;;10.53;3.30;;;15.50;99.90;;;;;;7287036;19;20186;-78
2023/08/26 04:10:57;;;;;;;14.20;3.73;;;15.40;99.90;;;;;;7285849;19;20698;-78
2023/08/26 04:13:28;;;;;;;12.37;3.67;;;15.30;99.90;;;;;;7286988;19;20215;-78
2023/08/26 04:15:58;;;;;;;11.97;3.20;;;15.30;99.90;;;;;;7286670;19;20202;-78
2023/08/26 04:18:24;;;;;;;12.20;3.50;;;15.30;99.90;;;;;;7286466;19;20186;-79
2023/08/26 04:20:52;;;;;;;10.40;3.50;;;15.30;99.90;;;;;;7285341;19;20222;-78
2023/08/26 04:23:18;;;;;;;17.47;4.07;;;15.30;99.90;;;;;;7287404;19;20198;-78
2023/08/26 04:25:44;;;;;;;14.83;3.73;;;15.40;99.90;;;;;;7305657;19;20210;-77
2023/08/26 04:28:11;;;;;;;13.10;3.27;;;15.40;99.90;;;;;;7283376;19;20206;-78
2023/08/26 04:30:37;;;;;;;11.60;3.30;;;15.50;99.90;;;;;;7286955;19;20200;-79
2023/08/26 04:33:04;;;;;;;13.00;3.60;;;15.40;99.90;;;;;;7284974;19;20207;-78
2023/08/26 04:35:31;;;;;;;9.70;3.10;;;15.40;99.90;;;;;;7286984;19;20270;-78
2023/08/26 04:37:56;;;;;;;12.00;3.10;;;15.30;99.90;;;;;;7286114;19;20189;-78
2023/08/26 04:40:22;;;;;;;8.37;2.70;;;15.30;99.90;;;;;;7286338;19;20206;-78
2023/08/26 04:42:48;;;;;;;11.33;3.00;;;15.40;99.90;;;;;;7285709;19;20768;-78
2023/08/26 04:45:17;;;;;;;8.67;2.27;;;15.40;99.90;;;;;;7306232;19;20301;-77
2023/08/26 04:47:43;;;;;;;7.53;2.67;;;15.40;99.90;;;;;;7306425;19;20193;-78
2023/08/26 04:50:11;;;;;;;10.20;3.13;;;15.40;99.90;;;;;;7286223;19;20315;-79
2023/08/26 04:52:39;;;;;;;11.70;3.10;;;15.40;99.90;;;;;;7283095;19;20193;-78
2023/08/26 04:55:09;;;;;;;7.70;2.53;;;15.40;99.90;;;;;;7282116;19;20190;-79
2023/08/26 04:57:34;;;;;;;11.43;2.33;;;15.50;99.90;;;;;;7280397;19;20214;-78
2023/08/26 05:00:00;;;;;;;11.40;2.60;;;15.50;99.90;;;;;;7282697;19;20197;-78
2023/08/26 05:02:28;;;;;;;7.93;2.50;;;15.50;99.90;;;;;;7285494;19;20189;-78
2023/08/26 05:04:54;;;;;;;9.20;2.40;;;15.50;99.90;;;;;;7282772;19;20197;-78
2023/08/26 05:07:20;;;;;;;10.13;2.30;;;15.50;99.90;;;;;;7284870;19;20191;-78
2023/08/26 05:09:46;;;;;;;8.93;2.60;;;15.60;99.90;;;;;;7285581;19;20190;-77
2023/08/26 05:12:12;;;;;;;11.10;2.40;;;15.50;99.90;;;;;;7306650;19;20215;-78
2023/08/26 05:14:37;;;;;;;8.17;2.33;;;15.60;99.90;;;;;;7285248;19;20197;-78
2023/08/26 05:17:03;;;;;;;9.77;2.43;;;15.70;99.90;;;;;;7285368;19;20199;-78
2023/08/26 05:19:29;;;;;;;7.37;2.70;;;15.80;99.90;;;;;;7284247;19;21805;-78
2023/08/26 05:21:57;;;;;;;10.10;2.90;;;15.80;99.90;;;;;;7285357;19;20650;-78
2023/08/26 05:24:23;;;;;;;9.07;2.50;;;15.80;99.90;;;;;;7283799;19;20199;-78
2023/08/26 05:26:49;;;;;;;9.90;2.50;;;15.90;99.90;;;;;;7284964;19;20187;-78
2023/08/26 05:29:15;;;;;;;8.50;2.63;;;16.00;99.90;;;;;;7296427;19;20189;-77
2023/08/26 05:31:41;;;;;;;9.30;2.50;;;15.90;99.90;;;;;;7305764;19;20226;-78
2023/08/26 05:34:07;;;;;;;5.67;2.30;;;16.00;99.90;;;;;;7283706;19;20178;-78
2023/08/26 05:36:33;;;;;;;9.10;2.37;;;16.10;99.90;;;;;;7285644;19;20191;-78
2023/08/26 05:38:59;;;;;;;8.27;2.27;;;16.40;99.90;;;;;;7282302;19;20219;-78
2023/08/26 05:41:25;;;;;;;8.00;2.30;;;17.50;99.90;;;;;;7283319;19;20196;-78
2023/08/26 05:43:50;;;;;;;7.67;2.00;;;18.40;99.90;;;;;;7283647;19;20196;-79
2023/08/26 05:46:16;;;;;;;8.57;2.13;;;19.40;99.90;;;;;;7282593;19;20195;-78
2023/08/26 05:48:42;;;;;;;8.80;2.10;;;19.60;99.90;;;;;;7306204;19;20189;-78
2023/08/26 05:51:08;;;;;;;8.20;2.47;;;19.80;99.90;;;;;;7284134;19;20206;-78
2023/08/26 05:53:33;;;;;;;11.00;2.70;;;20.10;99.90;;;;;;7283006;19;21855;-79
2023/08/26 05:55:59;;;;;;;5.93;1.93;;;20.70;99.90;;;;;;7282069;19;20200;-78
2023/08/26 05:58:25;;;;;;;6.80;2.07;;;21.10;99.90;;;;;;7282564;19;20200;-77
2023/08/26 06:00:51;;;;;;;7.70;2.33;;;21.50;99.90;;;;;;7283337;19;20177;-77
2023/08/26 06:03:17;;;;;;;11.03;2.47;;;21.30;99.90;;;;;;7281727;19;20203;-77
2023/08/26 06:05:43;;;;;;;7.90;2.67;;;21.50;99.90;;;;;;7303633;19;20594;-78
2023/08/26 06:08:09;;;;;;;6.83;2.20;;;21.90;99.90;;;;;;7283159;19;20187;-77
2023/08/26 06:10:36;;;;;;;7.73;2.27;;;22.30;99.90;;;;;;7283022;19;20643;-77
2023/08/26 06:13:03;;;;;;;7.47;2.17;;;22.20;99.90;;;;;;7281468;19;20197;-77
2023/08/26 06:15:29;;;;;;;6.87;2.13;;;21.70;99.90;;;;;;7281395;19;20253;-77
2023/08/26 06:17:55;;;;;;;8.37;2.57;;;21.60;99.90;;;;;;7283188;19;20588;-78
2023/08/26 06:20:24;;;;;;;7.93;2.40;;;21.70;99.90;;;;;;7280803;19;20202;-77
2023/08/26 06:22:50;;;;;;;7.87;2.47;;;21.80;99.90;;;;;;7280982;19;20191;-77
2023/08/26 06:25:16;;;;;;;6.33;1.93;;;22.10;99.90;;;;;;7280599;19;20199;-78
2023/08/26 06:27:42;;;;;;;10.40;2.30;;;22.30;99.90;;;;;;7303449;19;20540;-78
2023/08/26 06:30:08;;;;;;;7.37;2.30;;;22.70;99.90;;;;;;7282558;19;20304;-78
2023/08/26 06:32:35;;;;;;;5.30;2.03;;;23.10;99.90;;;;;;7283170;19;20209;-77
2023/08/26 06:35:04;;;;;;;7.60;2.07;;;23.90;99.90;;;;;;7277813;19;20221;-77
2023/08/26 06:37:30;;;;;;;5.67;2.00;;;24.40;99.90;;;;;;7280044;19;20547;-76
2023/08/26 06:39:56;;;;;;;8.13;2.03;;;25.40;99.90;;;;;;7280458;19;20311;-76
2023/08/26 06:42:22;;;;;;;8.10;2.20;;;25.70;99.90;;;;;;7279667;19;20657;-76
2023/08/26 06:44:54;;;;;;;6.67;2.13;;;25.90;99.90;;;;;;7279302;19;20189;-76
2023/08/26 06:47:20;;;;;;;6.37;2.10;;;25.90;99.90;;;;;;7279410;19;20252;-76
2023/08/26 06:49:46;;;;;;;6.40;1.93;;;25.40;99.90;;;;;;7279754;19;20189;-76
2023/08/26 06:52:14;;;;;;;6.60;2.30;;;25.50;99.90;;;;;;7300713;19;20260;-76
2023/08/26 06:54:40;;;;;;;6.37;2.00;;;25.00;99.90;;;;;;7279129;19;20184;-76
2023/08/26 06:57:06;;;;;;;6.73;2.07;;;25.30;99.90;;;;;;7277919;19;20937;-76
2023/08/26 06:59:32;;;;;;;7.20;2.10;;;26.70;99.90;;;;;;7278467;19;20204;-76
2023/08/26 07:01:58;;;;;;;7.70;2.10;;;25.90;99.90;;;;;;7279567;19;20193;-77
2023/08/26 07:04:24;;;;;;;7.38;2.08;;;26.40;99.90;;;;;;7278184;19;20200;-77
2023/08/26 07:06:50;;;;;;;7.63;2.65;;;28.10;99.90;;;;;;7278165;19;20204;-77
2023/08/26 07:09:16;;;;;;;9.35;2.28;;;29.20;99.90;;;;;;7280248;19;20181;-77
2023/08/26 07:11:42;;;;;;;7.07;2.33;;;29.80;97.10;;;;;;7300936;19;20545;-76
2023/08/26 07:14:07;;;;;;;6.50;2.03;;;30.50;93.40;;;;;;7277634;19;20188;-77
2023/08/26 07:16:33;;;;;;;6.10;2.10;;;29.80;95.50;;;;;;7277897;19;20189;-76
2023/08/26 07:18:59;;;;;;;7.43;2.20;;;30.40;94.40;;;;;;7277849;19;20189;-77
2023/08/26 07:21:25;;;;;;;6.43;2.03;;;31.50;91.00;;;;;;7282831;19;20219;-76
2023/08/26 07:23:51;;;;;;;7.13;2.17;;;31.00;88.70;;;;;;7284267;19;20201;-76
2023/08/26 07:26:18;;;;;;;3.60;1.70;;;30.40;87.80;;;;;;7285838;19;20196;-76
2023/08/26 07:28:45;;;;;;;7.43;1.70;;;29.90;90.10;;;;;;7308218;19;20189;-77
2023/08/26 07:31:12;;;;;;;6.57;1.63;;;30.00;90.80;;;;;;7287957;19;20209;-77
2023/08/26 07:33:37;;;;;;;7.93;1.73;;;30.20;90.30;;;;;;7286220;19;20224;-77
2023/08/26 07:36:08;;;;;;;4.70;1.70;;;29.70;90.10;;;;;;7286387;19;21592;-77
2023/08/26 07:38:34;;;;;;;4.93;1.50;;;30.40;88.30;;;;;;7285300;19;20264;-77
2023/08/26 07:41:01;;;;;;;5.50;1.60;;;29.50;90.00;;;;;;7286618;19;20224;-77
2023/08/26 07:43:26;;;;;;;5.43;1.60;;;29.10;92.20;;;;;;7286390;19;20196;-77
2023/08/26 07:45:52;;;;;;;6.07;1.70;;;28.00;93.60;;;;;;7285094;19;20188;-76
2023/08/26 07:48:18;;;;;;;4.15;1.73;;;27.30;96.30;;;;;;7287474;19;20205;-76
2023/08/26 07:50:44;;;;;;;4.38;1.65;;;26.50;98.20;;;;;;7308888;19;20614;-77
2023/08/26 07:53:10;;;;;;;6.15;1.90;;;26.10;99.90;;;;;;7286425;19;20181;-77
2023/08/26 07:55:36;;;;;;;4.30;1.50;;;26.90;99.90;;;;;;7286324;19;20643;-77
2023/08/26 07:58:01;;;;;;;7.10;2.08;;;28.80;95.90;;;;;;7286750;19;20193;-77
2023/08/26 08:00:27;;;;;;;4.57;1.65;;;30.10;91.20;;;;;;7286921;19;20260;-78
2023/08/26 08:02:56;;;;;;;7.25;1.85;;;31.20;90.40;;;;;;7286660;19;20208;-77
2023/08/26 08:05:22;;;;;;;4.88;1.65;;;32.50;86.70;;;;;;7285970;19;20196;-77
2023/08/26 08:07:47;;;;;;;6.40;1.80;;;32.90;81.10;;;;;;7285740;19;20181;-76
2023/08/26 08:10:13;;;;;;;5.82;1.67;;;32.60;79.20;;;;;;7308881;19;20181;-78
2023/08/26 08:12:39;;;;;;;6.28;2.00;;;33.00;75.70;;;;;;7286468;19;20185;-78
2023/08/26 08:15:06;;;;;;;5.53;1.90;;;33.50;77.10;;;;;;7284435;19;20257;-76
2023/08/26 08:17:32;;;;;;;5.47;2.00;;;34.10;72.20;;;;;;7287077;19;20192;-77
2023/08/26 08:19:58;;;;;;;6.80;1.88;;;34.50;73.40;;;;;;7285545;19;20657;-77
2023/08/26 08:22:40;;;;;;;9.73;2.10;;;34.40;70.90;;;;;;7286434;19;20180;-77
2023/08/26 08:25:06;;;;;;;7.35;2.15;;;34.60;69.10;;;;;;7285881;19;20180;-77
2023/08/26 08:27:32;;;;;;;7.15;2.38;;;33.90;69.30;;;;;;7284280;19;20188;-77
2023/08/26 08:29:59;;;;;;;6.40;2.03;;;32.90;71.40;;;;;;7286497;19;20189;-77
2023/08/26 08:32:25;;;;;;;5.65;1.92;;;32.50;71.80;;;;;;7285283;19;20185;-77
2023/08/26 08:34:52;;;;;;;7.55;2.10;;;33.40;71.10;;;;;;7284654;19;20189;-77
2023/08/26 08:37:18;;;;;;;6.40;2.00;;;33.90;69.40;;;;;;7284789;19;20185;-78
2023/08/26 08:39:44;;;;;;;10.32;2.85;;;33.40;69.30;;;;;;7306919;19;21012;-78
2023/08/26 08:42:13;;;;;;;9.85;2.60;;;33.40;69.10;;;;;;7284918;19;20189;-78
2023/08/26 08:44:42;;;;;;;8.27;2.17;;;33.70;70.00;;;;;;7285110;19;20188;-77
2023/08/26 08:47:08;;;;;;;5.53;1.77;;;34.60;69.30;;;;;;7282992;19;20189;-78
2023/08/26 08:49:36;;;;;;;6.88;2.20;;;35.00;67.80;;;;;;7284372;19;20194;-78
2023/08/26 08:52:05;;;;;;;6.50;1.95;;;35.60;67.00;;;;;;7284185;19;20189;-77
2023/08/26 08:54:32;;;;;;;5.38;1.80;;;35.10;64.50;;;;;;7282739;19;20180;-78
2023/08/26 08:57:03;;;;;;;3.72;1.90;;;33.80;67.20;;;;;;7284851;19;20200;-78
2023/08/26 08:59:32;;;;;;;5.97;1.63;;;34.40;67.40;;;;;;7282745;19;20217;-77
2023/08/26 09:01:58;;;;;;;5.38;1.60;;;34.70;69.40;;;;;;7285117;19;20684;-77
2023/08/26 09:04:25;;;;;;;3.65;1.50;;;35.10;67.20;;;;;;7282376;19;20224;-79
2023/08/26 09:06:52;;;;;;;5.15;1.25;;;35.80;65.80;;;;;;7282937;19;20767;-78
2023/08/26 09:09:18;;;;;;;6.50;1.63;;;32.20;67.50;;;;;;7284507;19;20188;-78
2023/08/26 09:11:44;;;;;;;4.07;1.25;;;32.10;70.30;;;;;;7305827;19;20545;-78
2023/08/26 09:14:10;;;;;;;3.53;1.00;;;31.50;70.80;;;;;;7295025;19;20200;-78
2023/08/26 09:16:37;;;;;;;2.75;1.02;;;31.60;71.50;;;;;;7285563;19;20186;-79
2023/08/26 09:19:21;;;;;;;3.25;1.00;;;32.00;74.80;;;;;;7284034;19;20189;-78
2023/08/26 09:21:47;;;;;;;3.75;1.30;;;31.10;70.90;;;;;;7265152;19;20604;-77
2023/08/26 09:24:14;;;;;;;4.70;1.20;;;30.80;74.60;;;;;;7306654;19;20192;-78
2023/08/26 09:26:47;;;;;;;3.28;0.90;;;30.50;75.20;;;;;;7283177;19;20527;-78
2023/08/26 09:29:20;;;;;;;5.40;1.20;;;30.20;77.50;;;;;;7285791;19;20207;-78
2023/08/26 09:31:49;;;;;;;8.43;1.60;;;29.40;79.00;;;;;;7263828;19;20547;-78
2023/08/26 09:34:28;;;;;;;5.53;1.50;;;29.50;81.70;;;;;;7299478;19;20690;-78
2023/08/26 09:36:55;;;;;;;3.90;1.17;;;29.80;81.40;;;;;;7283375;19;20185;-78
2023/08/26 09:39:24;;;;;;;3.25;1.17;;;30.40;80.70;;;;;;7284413;19;20201;-79
2023/08/26 09:41:50;;;;;;;7.53;1.40;;;31.60;77.80;;;;;;7285164;19;20319;-79
2023/08/26 09:44:16;;;;;;;4.53;1.30;;;32.30;78.00;;;;;;7293339;19;20232;-78
2023/08/26 09:46:43;;;;;;;5.80;1.15;;;31.80;73.90;;;;;;7304268;19;20185;-79
2023/08/26 09:49:17;;;;;;;3.78;1.00;;;31.00;77.40;;;;;;7285401;19;20192;-79
2023/08/26 09:51:51;;;;;;;5.78;1.52;;;31.80;77.40;;;;;;7285083;19;20189;-79
2023/08/26 09:54:21;;;;;;;4.28;1.42;;;30.90;76.20;;;;;;7263354;19;20193;-79
2023/08/26 09:56:51;;;;;;;3.20;1.30;;;30.10;78.40;;;;;;7284371;19;20256;-78
2023/08/26 09:59:17;;;;;;;2.95;1.38;;;29.90;80.50;;;;;;7283887;19;20901;-78
2023/08/26 10:01:43;;;;;;;4.85;1.50;;;30.70;78.40;;;;;;7305488;19;20774;-79
2023/08/26 10:04:11;;;;;;;4.68;1.35;;;30.60;78.40;;;;;;7282956;19;20197;-79
2023/08/26 10:06:44;;;;;;;1.90;1.10;;;31.40;78.90;;;;;;7284105;19;20189;-79
2023/08/26 10:09:27;;;;;;;5.20;1.30;;;31.30;75.90;;;;;;7283969;19;20283;-80
2023/08/26 10:11:55;;;;;;;4.72;1.48;;;32.00;76.20;;;;;;7180918;19;2004993;-79
2023/08/26 10:14:24;;;;;;;7.90;1.40;;;30.20;77.40;;;;;;7282605;19;20301;-78
2023/08/26 10:16:52;;;;;;;4.05;1.52;;;29.50;82.80;;;;;;7283312;19;20186;-79
2023/08/26 10:19:20;;;;;;;5.50;1.27;;;29.00;82.70;;;;;;7281329;19;20252;-79
2023/08/26 10:21:46;;;;;;;4.78;1.17;;;29.70;84.30;;;;;;7288866;19;20193;-77
2023/08/26 10:24:13;;;;;;;2.42;1.13;;;30.00;84.60;;;;;;7304744;19;20181;-78
2023/08/26 10:26:39;;;;;;;2.92;1.20;;;31.20;81.20;;;;;;7281674;19;20180;-79
2023/08/26 10:29:05;;;;;;;4.47;1.30;;;32.10;76.00;;;;;;7283032;19;20198;-80
2023/08/26 10:31:38;;;;;;;3.28;1.20;;;32.00;74.70;;;;;;7281275;19;20185;-79
2023/08/26 10:34:06;;;;;;;5.22;2.42;;;32.00;75.00;;;;;;7283196;19;20189;-79
2023/08/26 10:36:37;;;;;;;5.07;1.73;;;31.20;73.50;;;;;;7284034;19;20222;-79
2023/08/26 10:39:04;;;;;;;5.07;1.50;;;30.70;75.60;;;;;;7283075;19;20197;-80
2023/08/26 10:41:30;;;;;;;5.00;1.60;;;29.90;76.40;;;;;;7281931;19;20223;-79
2023/08/26 10:43:58;;;;;;;5.18;1.40;;;28.60;79.90;;;;;;7283601;19;20195;-79
2023/08/26 10:46:56;;;;;;;3.45;1.17;;;28.80;80.80;;;;;;7283680;19;20185;-80
2023/08/26 10:49:28;;;;;;;2.47;0.98;;;28.00;82.10;;;;;;7181509;19;2004416;-79
2023/08/26 10:52:17;;;;;;;3.80;0.90;;;28.30;87.20;;;;;;7286035;19;20185;-81
2023/08/26 10:54:44;;;;;;;5.32;1.02;;;28.60;87.20;;;;;;7300053;19;20208;-80
2023/08/26 10:57:10;;;;;;;3.90;1.20;;;28.20;86.80;;;;;;7305481;19;20185;-81
2023/08/26 10:59:45;;;;;;;5.80;1.73;;;28.60;86.30;;;;;;7298608;19;20181;-80
2023/08/26 11:02:11;;;;;;;4.47;0.80;;;28.80;90.00;;;;;;7295151;19;20180;-80
2023/08/26 11:04:45;;;;;;;3.20;0.90;;;29.00;81.80;;;;;;7288192;19;20220;-79
2023/08/26 11:07:18;;;;;;;3.33;1.20;;;29.50;81.90;;;;;;7289366;19;20192;-80
2023/08/26 11:09:45;;;;;;;1.90;0.85;;;30.40;77.40;;;;;;7290009;19;20653;-80
2023/08/26 11:12:29;;;;;;;3.53;0.98;;;30.50;77.30;;;;;;7289292;19;20205;-80
2023/08/26 11:15:05;;;;;;;4.32;0.98;;;29.60;81.30;;;;;;7185466;19;2004934;-80
2023/08/26 11:17:32;;;;;;;4.30;1.20;;;29.00;81.80;;;;;;7284539;19;20200;-80
2023/08/26 11:19:58;;;;;;;3.45;1.70;;;28.10;83.60;;;;;;7287512;19;20191;-80
2023/08/26 11:22:26;;;;;;;5.13;1.48;;;28.10;86.20;;;;;;7286714;19;20268;-80
2023/08/26 11:24:52;;;;;;;2.47;0.80;;;29.10;90.70;;;;;;7287549;19;20644;-80
2023/08/26 11:27:18;;;;;;;5.40;1.98;;;29.00;83.90;;;;;;7295206;19;20196;-80
2023/08/26 11:29:44;;;;;;;36.92;3.20;;;28.70;83.00;;;;;;7310873;19;20311;-80
2023/08/26 11:32:12;;;;;;;27.92;2.40;;;29.70;84.40;;;;;;7290263;19;20192;-80
2023/08/26 11:34:38;;;;;;;4.60;1.70;;;30.90;80.50;;;;;;7287522;19;20250;-80
2023/08/26 11:37:05;;;;;;;4.05;0.73;;;31.20;76.70;;;;;;7286478;19;20193;-79
2023/08/26 11:39:31;;;;;;;6.78;0.80;;;31.00;74.70;;;;;;7286964;19;20185;-80
2023/08/26 11:41:57;;;;;;;2.65;0.70;;;30.70;73.10;;;;;;7287004;19;20189;-80
2023/08/26 11:44:23;;;;;;;2.47;0.60;;;29.90;75.20;;;;;;7285613;19;20289;-80
2023/08/26 11:46:50;;;;;;;3.55;0.70;;;29.30;79.10;;;;;;7285214;19;20309;-80
2023/08/26 11:49:16;;;;;;;2.35;0.60;;;29.30;80.40;;;;;;7293801;19;20196;-80
2023/08/26 11:51:43;;;;;;;4.03;0.80;;;30.10;78.80;;;;;;7309658;19;20193;-80
2023/08/26 11:54:11;;;;;;;2.78;0.63;;;29.70;77.00;;;;;;7284587;19;20209;-80
2023/08/26 11:56:37;;;;;;;2.10;0.50;;;29.50;76.50;;;;;;7287894;19;20276;-80
2023/08/26 11:59:17;;;;;;;2.47;0.50;;;29.50;77.50;;;;;;7286851;19;20864;-80
2023/08/26 12:01:43;;;;;;;1.23;0.60;;;28.80;79.60;;;;;;7288054;19;20201;-81
2023/08/26 12:04:15;;;;;;;2.15;0.70;;;29.80;80.30;;;;;;7286730;19;20199;-80
2023/08/26 12:06:42;;;;;;;2.63;0.68;;;30.60;78.30;;;;;;7287395;19;20249;-80
2023/08/26 12:09:11;;;;;;;1.98;0.55;;;30.60;78.10;;;;;;7286275;19;20185;-80
2023/08/26 12:11:40;;;;;;;1.38;0.50;;;30.20;78.20;;;;;;7287827;19;20205;-80
2023/08/26 12:14:20;;;;;;;3.22;0.70;;;30.30;76.20;;;;;;7288310;19;20249;-80
2023/08/26 12:16:46;;;;;;;1.85;0.52;;;30.60;79.20;;;;;;7289283;19;20243;-80
2023/08/26 12:19:19;;;;;;;2.38;0.45;;;31.00;75.10;;;;;;7320965;19;20193;-83
2023/08/26 12:21:51;;;;;;;2.17;0.70;;;31.60;76.10;;;;;;7288215;19;20305;-80
2023/08/26 12:24:26;;;;;;;3.03;0.50;;;31.00;73.50;;;;;;7265774;19;20226;-80
2023/08/26 12:26:53;;;;;;;2.70;0.68;;;30.40;78.20;;;;;;7287276;19;20187;-81
2023/08/26 12:29:20;;;;;;;3.28;0.80;;;29.60;75.40;;;;;;7286340;19;20181;-81
2023/08/26 12:31:49;;;;;;;2.30;0.60;;;28.80;80.80;;;;;;7302022;19;20196;-80
2023/08/26 12:34:15;;;;;;;2.47;0.55;;;28.90;80.50;;;;;;7307693;19;20173;-81
2023/08/26 12:36:43;;;;;;;1.92;0.60;;;28.80;83.90;;;;;;7286164;19;20213;-81
2023/08/26 12:39:11;;;;;;;1.95;0.50;;;28.60;81.60;;;;;;7286229;19;20872;-81
2023/08/26 12:41:37;;;;;;;1.95;0.60;;;28.30;83.40;;;;;;7285582;19;20185;-81
2023/08/26 12:44:03;;;;;;;3.30;0.63;;;27.80;84.40;;;;;;7285880;19;20207;-81
2023/08/26 12:46:28;;;;;;;1.42;0.50;;;27.40;84.20;;;;;;7285521;19;20193;-81